York, North Dakota
Current Conditions -  °F | °C
As of 12:15 PM on Thursday 23 Oct 2014 (Local Time) from K9D7 Reporting Station
Clear Clear  
Wind Chill: 63°   Ceiling: Unl
Heat Index: 63°   Visibility: 10mi
Dew Point: 37°   Wind: 9mph
Humidity: 39%   Direction: 260°W
Pressure: 29.83"   Gusts: NA
Location:  48.31°N, 99.57°W
Report Text: K9D7 231715Z AUTO 26008KT 10SM CLR 17/03 A2983 RMK AO2
Loading
Personal Weather Stations






























Interactive Weather Map
Tropical Storm Tracking
New forecast layout! Learn more

10-Day Weather Forecast

Advertisements
Track Severe Weather on mobile